Albertson, North Carolina
Current Conditions -  °F | °C
As of 7:15 PM on Wednesday 26 Nov 2014 (Local Time) from KDPL Reporting Station
Overcast Overcast  
Wind Chill: 41°   Ceiling: 2000
Heat Index: 44°   Visibility: 10mi
Dew Point: 40°   Wind: 6mph
Humidity: 85%   Direction: 300°WNW
Pressure: 30.06"   Gusts: NA
Location:  35.11°N, 77.82°W
Report Text: KDPL 270015Z AUTO 30005KT 10SM OVC020 07/05 A3006 RMK AO2 T00680045
Loading
Personal Weather Stations






























Interactive Weather Map New forecast layout! Learn more

10-Day Weather Forecast

Advertisements
Track Severe Weather on mobile